Time;durP1;ratioP1;P1;durP2;ratioP2;P2;SDS_P1;SDS_P2;PMS_P1;PMS_P2;Temp;Humidity;BMP_temperature;BMP_pressure;BME280_temperature;BME280_humidity;BME280_pressure;Samples;Min_cycle;Max_cycle;Signal;HPM_P1;HPM_P2
2022/01/14 00:00:38;;;;;;;62.65;11.40;;;;;;;7.11;76.15;103881.06;4960344;28;20371;-59
2022/01/14 00:03:03;;;;;;;48.42;12.18;;;;;;;7.09;76.21;103876.53;4963021;28;20034;-58
2022/01/14 00:05:29;;;;;;;46.50;11.40;;;;;;;7.16;76.08;103877.13;4952591;28;20046;-59
2022/01/14 00:07:54;;;;;;;58.15;12.02;;;;;;;7.13;76.08;103878.59;4954375;28;20066;-58
2022/01/14 00:10:20;;;;;;;43.15;10.93;;;;;;;7.12;76.14;103887.16;4953669;28;20453;-59
2022/01/14 00:12:53;;;;;;;41.78;11.50;;;;;;;7.13;76.07;103881.19;4960430;28;20743;-57
2022/01/14 00:15:26;;;;;;;48.60;11.48;;;;;;;7.04;75.79;103875.28;4948814;28;20074;-59
2022/01/14 00:17:55;;;;;;;62.67;11.80;;;;;;;7.02;75.99;103864.78;4952690;28;20038;-58
2022/01/14 00:20:21;;;;;;;37.50;12.07;;;;;;;6.99;76.31;103863.66;4963020;28;20054;-57
2022/01/14 00:22:47;;;;;;;30.15;11.10;;;;;;;6.98;76.25;103865.34;4952051;28;20510;-59
2022/01/14 00:33:09;;;;;;;37.95;12.07;;;;;;;6.90;76.02;103840.53;4955087;28;20577;-58
2022/01/14 00:35:36;;;;;;;32.50;12.00;;;;;;;6.88;76.16;103832.66;4950487;28;21144;-59
2022/01/14 00:38:02;;;;;;;37.03;11.55;;;;;;;6.86;76.14;103829.03;4960772;28;20050;-58
2022/01/14 00:40:28;;;;;;;35.30;11.85;;;;;;;6.84;75.82;103829.69;4953606;28;20101;-58
2022/01/14 00:42:53;;;;;;;33.63;11.73;;;;;;;6.79;76.27;103831.03;4955736;28;20129;-58
2022/01/14 00:45:22;;;;;;;35.38;12.10;;;;;;;6.75;76.32;103832.50;4956709;28;20039;-58
2022/01/14 00:47:48;;;;;;;40.95;12.48;;;;;;;6.74;76.23;103827.19;4953307;28;20089;-59
2022/01/14 00:50:15;;;;;;;46.80;12.02;;;;;;;6.71;76.49;103833.03;4957285;28;20073;-58
2022/01/14 00:52:41;;;;;;;46.20;12.18;;;;;;;6.70;76.34;103826.06;4957295;28;20045;-58
2022/01/14 00:55:12;;;;;;;52.10;12.40;;;;;;;6.69;76.30;103824.25;4959683;28;20052;-58
2022/01/14 01:00:34;;;;;;;44.78;12.05;;;;;;;6.64;76.15;103828.19;4957611;28;20104;-58
2022/01/14 01:03:01;;;;;;;59.33;12.02;;;;;;;6.66;76.37;103821.41;4952828;28;20316;-59
2022/01/14 01:05:27;;;;;;;45.78;12.38;;;;;;;6.66;76.31;103821.41;4954817;28;20045;-62
2022/01/14 01:10:27;;;;;;;45.92;12.82;;;;;;;6.67;76.19;103799.00;4957874;28;20165;-58
2022/01/14 01:13:04;;;;;;;33.97;11.65;;;;;;;6.62;76.52;103795.16;4960309;28;20039;-58
2022/01/14 01:15:29;;;;;;;41.28;12.85;;;;;;;6.55;76.39;103800.66;4951502;28;20045;-59
2022/01/14 01:17:55;;;;;;;41.67;13.80;;;;;;;6.56;76.33;103799.88;4955570;28;20050;-59
2022/01/14 01:20:21;;;;;;;39.22;12.95;;;;;;;6.50;76.30;103801.22;4956930;28;20395;-60
2022/01/14 01:22:49;;;;;;;38.15;13.43;;;;;;;6.46;76.38;103806.06;4958297;28;20114;-57
2022/01/14 01:25:18;;;;;;;36.97;13.48;;;;;;;6.44;76.58;103805.94;4938578;28;21401;-59
2022/01/14 01:27:47;;;;;;;48.28;13.65;;;;;;;6.46;76.63;103798.28;4955449;28;20697;-58
2022/01/14 01:32:39;;;;;;;50.05;14.77;;;;;;;6.50;76.64;103777.00;4956241;28;20498;-59
2022/01/14 01:35:04;;;;;;;43.53;14.25;;;;;;;6.48;76.63;103784.66;4955153;28;20053;-59
2022/01/14 01:37:30;;;;;;;41.60;14.77;;;;;;;6.45;76.64;103787.03;4948614;28;20047;-59
2022/01/14 01:39:55;;;;;;;41.72;14.63;;;;;;;6.42;76.74;103785.88;4964225;28;20057;-59
2022/01/14 01:42:27;;;;;;;45.53;14.55;;;;;;;6.43;76.52;103791.16;4956126;28;20058;-59
2022/01/14 01:44:52;;;;;;;42.13;14.98;;;;;;;6.37;76.66;103793.28;4955668;28;20065;-60
2022/01/14 01:47:21;;;;;;;37.50;14.48;;;;;;;6.34;76.75;103793.03;4959299;28;20046;-59
2022/01/14 01:49:47;;;;;;;39.13;14.90;;;;;;;6.34;76.50;103794.75;4952607;28;20494;-59
2022/01/14 01:52:12;;;;;;;47.30;14.48;;;;;;;6.31;76.69;103791.91;4955000;28;20140;-58
2022/01/14 01:54:38;;;;;;;46.55;15.38;;;;;;;6.30;76.82;103790.09;4958545;28;20405;-58
2022/01/14 01:57:04;;;;;;;48.90;16.30;;;;;;;6.34;76.76;103795.63;4955600;28;20528;-59
2022/01/14 01:59:29;;;;;;;63.60;15.80;;;;;;;6.34;76.80;103798.22;4950847;28;20046;-59
2022/01/14 02:01:59;;;;;;;51.42;15.98;;;;;;;6.38;76.93;103797.69;4957712;28;20042;-60
2022/01/14 02:04:25;;;;;;;44.80;15.25;;;;;;;6.40;76.86;103800.41;4957956;28;20046;-59
2022/01/14 02:06:55;;;;;;;41.60;15.00;;;;;;;6.41;76.53;103800.50;4955532;28;20070;-59
2022/01/14 02:09:21;;;;;;;42.53;15.57;;;;;;;6.39;77.01;103796.00;4958061;28;20054;-58
2022/01/14 02:11:47;;;;;;;52.15;15.20;;;;;;;6.41;76.66;103787.53;4953569;28;20044;-59
2022/01/14 02:14:27;;;;;;;57.05;15.00;;;;;;;6.41;76.64;103794.41;4957056;28;20497;-61
2022/01/14 02:17:52;;;;;;;41.85;14.55;;;;;;;6.41;76.92;103797.00;4953474;28;20069;-59
2022/01/14 02:22:10;;;;;;;77.63;14.80;;;;;;;6.42;76.58;103798.81;4948988;28;20294;-59
2022/01/14 02:22:49;;;;;;;99.15;15.65;;;;;;;6.44;76.56;103795.56;4953478;28;20039;-59
2022/01/14 02:25:16;;;;;;;30.85;13.27;;;;;;;6.43;76.31;103795.44;4953897;28;20049;-59
2022/01/14 02:27:43;;;;;;;96.15;14.57;;;;;;;6.39;76.51;103791.72;4950665;28;20038;-59
2022/01/14 02:30:09;;;;;;;64.15;13.93;;;;;;;6.40;76.63;103790.91;4956968;28;20085;-59
2022/01/14 02:32:35;;;;;;;39.70;13.52;;;;;;;6.40;76.58;103792.63;4950301;28;20047;-59
2022/01/14 02:35:00;;;;;;;54.80;14.15;;;;;;;6.34;76.66;103785.25;4951977;28;20042;-59
2022/01/14 02:37:26;;;;;;;46.92;13.18;;;;;;;6.35;76.39;103796.53;4944727;28;20540;-61
2022/01/14 02:39:52;;;;;;;54.45;13.35;;;;;;;6.30;76.42;103788.41;4951637;28;20498;-59
2022/01/14 02:42:17;;;;;;;76.60;14.52;;;;;;;6.31;76.62;103797.09;4955623;28;20318;-59
2022/01/14 02:44:43;;;;;;;44.95;14.02;;;;;;;6.29;76.68;103803.84;4949041;28;20061;-59
2022/01/14 02:47:08;;;;;;;40.08;13.85;;;;;;;6.28;76.66;103795.16;4951157;28;20040;-60
2022/01/14 02:49:36;;;;;;;49.10;14.02;;;;;;;6.25;76.76;103805.31;4944810;28;20039;-59
2022/01/14 02:52:04;;;;;;;40.78;14.18;;;;;;;6.25;76.58;103810.47;4948995;28;20078;-59
2022/01/14 02:54:39;;;;;;;41.33;14.07;;;;;;;6.21;76.51;103807.53;4954539;28;20038;-58
2022/01/14 02:57:06;;;;;;;35.70;13.60;;;;;;;6.20;76.53;103800.56;4960695;28;20513;-58
2022/01/14 02:59:32;;;;;;;32.42;14.02;;;;;;;6.19;76.54;103806.50;4948615;28;20065;-59
2022/01/14 03:02:01;;;;;;;62.63;14.80;;;;;;;6.18;76.78;103808.19;4938420;28;20125;-59
2022/01/14 03:04:27;;;;;;;39.22;13.80;;;;;;;6.20;76.80;103805.72;4952309;28;20754;-59
2022/01/14 03:06:52;;;;;;;36.67;14.05;;;;;;;6.21;76.86;103804.94;4952395;28;20050;-59
2022/01/14 03:09:19;;;;;;;44.55;15.10;;;;;;;6.24;76.94;103808.66;4951715;28;20046;-59
2022/01/14 03:11:50;;;;;;;35.75;14.25;;;;;;;6.26;76.59;103814.88;4952929;28;20677;-59
2022/01/14 03:14:22;;;;;;;42.88;14.05;;;;;;;6.26;76.81;103809.69;4961118;28;20081;-58
2022/01/14 03:16:49;;;;;;;59.28;13.93;;;;;;;6.30;76.16;103818.59;4951263;28;20507;-59
2022/01/14 03:19:20;;;;;;;53.40;15.18;;;;;;;6.24;76.73;103810.34;4946498;28;20491;-59
2022/01/14 03:21:46;;;;;;;51.28;14.55;;;;;;;6.19;76.21;103807.41;4945247;28;20671;-59
2022/01/14 03:25:47;;;;;;;53.13;14.55;;;;;;;6.17;76.81;103800.28;4954974;28;20156;-59
2022/01/14 03:27:10;;;;;;;80.40;13.43;;;;;;;6.13;76.54;103796.59;4956169;28;20373;-58
2022/01/14 03:29:35;;;;;;;54.00;13.85;;;;;;;6.10;76.55;103793.72;4949215;28;20047;-58
2022/01/14 03:32:02;;;;;;;52.20;14.50;;;;;;;6.08;76.36;103795.31;4950569;28;20892;-59
2022/01/14 03:34:28;;;;;;;42.40;13.88;;;;;;;6.06;76.24;103787.44;4950160;28;20054;-59
2022/01/14 03:36:53;;;;;;;33.40;13.90;;;;;;;6.07;76.54;103784.06;4957604;28;20461;-59
2022/01/14 03:39:20;;;;;;;53.47;12.90;;;;;;;6.05;76.68;103780.44;4955110;28;20042;-59
2022/01/14 03:41:46;;;;;;;45.55;13.57;;;;;;;6.05;76.51;103783.03;4948265;28;20054;-59
2022/01/14 03:44:11;;;;;;;60.00;14.23;;;;;;;6.02;76.50;103782.81;4952934;28;20592;-59
2022/01/14 03:46:37;;;;;;;56.85;15.00;;;;;;;5.99;76.58;103786.81;4956936;28;20124;-59
2022/01/14 03:49:02;;;;;;;34.33;13.77;;;;;;;6.02;76.44;103787.06;4954404;28;20054;-59
2022/01/14 03:51:28;;;;;;;82.07;14.90;;;;;;;6.04;76.63;103773.44;4949322;28;20133;-60
2022/01/14 03:53:54;;;;;;;51.72;13.93;;;;;;;6.06;76.75;103773.56;4956424;28;20050;-59
2022/01/14 03:56:19;;;;;;;64.47;15.73;;;;;;;6.02;76.64;103767.25;4953336;28;20080;-59
2022/01/14 03:58:45;;;;;;;60.58;14.98;;;;;;;6.01;77.04;103767.13;4954719;28;20050;-59
2022/01/14 04:01:11;;;;;;;56.88;15.20;;;;;;;6.03;76.93;103774.25;4954051;28;20043;-59
2022/01/14 04:03:37;;;;;;;62.58;15.60;;;;;;;6.04;76.99;103767.34;4944816;28;20558;-60
2022/01/14 04:06:03;;;;;;;79.00;15.75;;;;;;;6.03;76.93;103768.16;4954571;28;20034;-59
2022/01/14 04:08:29;;;;;;;40.40;14.55;;;;;;;6.08;76.86;103774.59;4949770;28;20058;-60
2022/01/14 04:10:56;;;;;;;111.80;16.08;;;;;;;6.06;76.72;103765.81;4960844;28;20468;-60
2022/01/14 04:13:34;;;;;;;60.58;16.02;;;;;;;6.11;76.72;103761.88;4948255;28;20042;-59
2022/01/14 04:16:00;;;;;;;60.03;14.88;;;;;;;6.10;76.50;103760.97;4956893;28;20047;-58
2022/01/14 04:18:26;;;;;;;32.33;14.65;;;;;;;6.10;76.62;103757.47;4952689;28;20085;-59
2022/01/14 04:20:51;;;;;;;54.30;15.48;;;;;;;6.08;76.41;103748.69;4951556;28;20050;-60
2022/01/14 04:23:20;;;;;;;60.38;14.80;;;;;;;6.05;76.62;103754.53;4960541;28;20120;-60
2022/01/14 04:25:47;;;;;;;76.05;15.73;;;;;;;6.02;76.89;103746.53;4951167;28;20050;-61
2022/01/14 04:28:13;;;;;;;78.20;16.17;;;;;;;6.01;77.00;103746.41;4957801;28;20053;-60
2022/01/14 04:30:39;;;;;;;36.15;14.75;;;;;;;6.07;76.59;103744.31;4950761;28;20046;-60
2022/01/14 04:33:04;;;;;;;72.70;15.32;;;;;;;6.03;76.65;103731.91;4957151;28;20045;-59
2022/01/14 04:35:31;;;;;;;58.03;14.43;;;;;;;6.03;76.73;103727.63;4948186;28;20045;-59
2022/01/14 04:37:57;;;;;;;91.18;15.32;;;;;;;6.02;76.68;103715.47;4952428;28;20606;-59
2022/01/14 04:40:22;;;;;;;58.58;14.38;;;;;;;5.99;76.90;103716.91;4964849;28;20689;-61
2022/01/14 04:42:48;;;;;;;43.97;15.05;;;;;;;5.97;76.81;103723.66;4956661;28;20569;-60
2022/01/14 04:45:27;;;;;;;87.40;15.52;;;;;;;5.94;76.83;103723.41;4955404;28;20035;-59
2022/01/14 04:47:53;;;;;;;70.85;14.45;;;;;;;5.90;76.55;103717.13;4949994;28;20287;-59
2022/01/14 04:50:20;;;;;;;43.53;14.30;;;;;;;5.88;76.80;103715.19;4956836;28;20055;-59
2022/01/14 04:52:47;;;;;;;28.50;14.23;;;;;;;5.88;76.84;103715.19;4959717;28;20108;-59
2022/01/14 04:55:15;;;;;;;38.13;14.02;;;;;;;5.84;76.70;103726.06;4959251;28;20054;-60
2022/01/14 04:57:41;;;;;;;50.63;14.50;;;;;;;5.79;76.82;103722.22;4957666;28;20682;-58
2022/01/14 05:00:09;;;;;;;65.32;14.65;;;;;;;5.77;76.57;103711.72;4957293;28;20700;-59
2022/01/14 05:02:36;;;;;;;44.40;14.60;;;;;;;5.73;76.81;103701.94;4964543;28;20038;-58
2022/01/14 05:05:02;;;;;;;34.42;13.98;;;;;;;5.70;76.73;103710.34;4951925;28;20340;-60
2022/01/14 05:07:27;;;;;;;28.00;14.32;;;;;;;5.72;76.47;103708.78;4952418;28;20406;-60
2022/01/14 05:10:48;;;;;;;35.80;14.43;;;;;;;5.68;76.61;103701.53;4958890;28;20557;-59
2022/01/14 05:12:42;;;;;;;39.17;14.23;;;;;;;5.63;76.86;103702.88;4957068;28;20092;-60
2022/01/14 05:15:08;;;;;;;30.17;13.77;;;;;;;5.61;76.68;103698.38;4959606;28;20066;-61
2022/01/14 05:17:34;;;;;;;29.73;13.65;;;;;;;5.61;76.48;103693.22;4950434;28;20081;-60
2022/01/14 05:20:00;;;;;;;46.90;13.95;;;;;;;5.60;76.69;103681.97;4976885;28;20410;-60
2022/01/14 05:22:26;;;;;;;38.13;14.20;;;;;;;5.60;76.72;103673.28;4948513;28;20058;-59
2022/01/14 05:24:51;;;;;;;42.17;14.20;;;;;;;5.62;76.54;103676.88;4955311;28;20410;-59
2022/01/14 05:27:16;;;;;;;40.83;14.32;;;;;;;5.59;76.75;103687.00;4957711;28;20368;-60
2022/01/14 05:29:42;;;;;;;26.35;12.95;;;;;;;5.61;76.24;103682.84;4950981;28;20343;-59
2022/01/14 05:32:12;;;;;;;30.25;13.13;;;;;;;5.56;76.49;103690.22;4959298;28;20126;-60
2022/01/14 05:34:38;;;;;;;23.25;12.43;;;;;;;5.52;76.58;103682.13;4953019;28;20130;-60
2022/01/14 05:37:04;;;;;;;35.85;14.63;;;;;;;5.43;76.38;103673.66;4948536;28;20587;-59
2022/01/14 05:39:31;;;;;;;24.80;13.00;;;;;;;5.38;76.43;103675.84;4944876;28;20046;-58
2022/01/14 05:41:57;;;;;;;37.03;15.02;;;;;;;5.33;76.38;103682.34;4955754;28;20054;-59
2022/01/14 05:44:26;;;;;;;28.15;14.20;;;;;;;5.33;76.73;103684.94;4957668;28;20042;-59
2022/01/14 05:46:52;;;;;;;27.00;13.63;;;;;;;5.33;76.04;103677.19;4947098;28;20046;-59
2022/01/14 05:49:19;;;;;;;25.15;12.32;;;;;;;5.33;76.18;103674.59;4958950;28;20050;-59
2022/01/14 05:51:45;;;;;;;24.95;13.10;;;;;;;5.31;76.14;103684.81;4945159;28;20125;-60
2022/01/14 05:54:11;;;;;;;33.45;13.82;;;;;;;5.31;76.16;103682.22;4959144;28;20518;-61
2022/01/14 05:56:36;;;;;;;28.48;13.85;;;;;;;5.29;76.20;103677.72;4948576;28;20124;-60
2022/01/14 05:59:02;;;;;;;28.73;13.40;;;;;;;5.27;76.41;103679.28;4961716;28;20042;-59
2022/01/14 06:01:30;;;;;;;27.85;13.73;;;;;;;5.25;76.56;103692.09;4949656;28;20042;-60
2022/01/14 06:03:56;;;;;;;31.85;14.68;;;;;;;5.25;76.17;103696.34;4954902;28;20046;-59
2022/01/14 06:06:21;;;;;;;29.83;14.30;;;;;;;5.24;76.28;103698.06;4956336;28;20560;-59
2022/01/14 06:08:49;;;;;;;26.48;13.93;;;;;;;5.24;76.01;103682.56;4955650;28;20664;-59
2022/01/14 06:11:14;;;;;;;28.17;14.38;;;;;;;5.23;76.37;103685.00;4961243;28;20039;-60
2022/01/14 06:13:40;;;;;;;28.40;13.38;;;;;;;5.21;76.25;103682.28;4953772;28;20307;-58
2022/01/14 06:16:05;;;;;;;27.73;13.88;;;;;;;5.15;76.90;103689.56;4958747;28;20061;-60
2022/01/14 06:18:30;;;;;;;33.83;14.85;;;;;;;5.15;76.47;103688.66;4958230;28;20042;-59
2022/01/14 06:20:56;;;;;;;26.35;13.43;;;;;;;5.15;76.70;103683.47;4950780;28;20053;-60
2022/01/14 06:23:21;;;;;;;27.20;13.77;;;;;;;5.14;76.05;103685.16;4957717;28;20509;-59
2022/01/14 06:25:47;;;;;;;25.40;13.63;;;;;;;5.14;76.30;103687.75;4944694;28;20042;-60
2022/01/14 06:28:12;;;;;;;36.38;14.48;;;;;;;5.07;76.61;103689.72;4959177;28;20054;-59
2022/01/14 06:30:38;;;;;;;32.60;13.90;;;;;;;5.11;76.28;103689.19;4956733;28;20068;-60
2022/01/14 06:33:03;;;;;;;28.05;13.95;;;;;;;5.05;76.42;103699.97;4957988;28;20042;-59
2022/01/14 06:35:28;;;;;;;33.83;13.10;;;;;;;5.05;76.57;103684.44;4947843;28;20306;-59
2022/01/14 06:37:57;;;;;;;27.63;14.48;;;;;;;5.05;76.24;103688.72;4952618;28;20046;-60
2022/01/14 06:40:22;;;;;;;30.02;14.68;;;;;;;5.04;76.66;103695.56;4954614;28;20058;-60
2022/01/14 06:42:48;;;;;;;29.15;13.93;;;;;;;5.02;76.58;103691.94;4956169;28;20042;-60
2022/01/14 06:45:13;;;;;;;26.83;14.13;;;;;;;4.98;76.66;103692.47;4949933;28;20581;-59
2022/01/14 06:47:39;;;;;;;28.52;14.18;;;;;;;4.98;76.25;103708.00;4946582;28;20350;-59
2022/01/14 06:50:04;;;;;;;31.75;14.68;;;;;;;4.98;76.91;103717.44;4956556;28;20065;-59
2022/01/14 06:52:30;;;;;;;32.25;14.32;;;;;;;5.00;76.57;103728.81;4950225;28;20712;-59
2022/01/14 06:54:56;;;;;;;40.22;14.52;;;;;;;4.99;76.59;103721.81;4956596;28;20053;-59
2022/01/14 06:57:23;;;;;;;34.15;15.35;;;;;;;4.98;76.86;103720.91;4936146;28;20046;-59
2022/01/14 06:59:48;;;;;;;24.20;13.23;;;;;;;5.07;76.58;103724.22;4952333;28;20054;-59
2022/01/14 07:02:14;;;;;;;54.17;15.77;;;;;;;5.06;76.86;103729.31;4953958;28;20047;-59
2022/01/14 07:04:39;;;;;;;28.73;14.85;;;;;;;5.09;76.70;103727.84;4948006;28;20046;-60
2022/01/14 07:07:05;;;;;;;28.63;14.10;;;;;;;5.09;76.55;103719.19;4956147;28;20056;-59
2022/01/14 07:09:31;;;;;;;30.23;14.50;;;;;;;5.14;76.90;103741.16;4954083;28;20050;-60
2022/01/14 07:11:59;;;;;;;25.20;12.90;;;;;;;5.22;76.85;103722.00;4958086;28;20053;-60
2022/01/14 07:14:25;;;;;;;36.20;15.65;;;;;;;5.17;76.75;103710.38;4959465;28;20434;-59
2022/01/14 07:16:50;;;;;;;34.40;15.15;;;;;;;5.15;76.72;103720.59;4955518;28;20531;-58
2022/01/14 07:19:18;;;;;;;34.97;14.88;;;;;;;5.16;77.02;103719.81;4960021;28;20113;-59
2022/01/14 07:21:44;;;;;;;35.15;15.63;;;;;;;5.22;76.96;103717.72;4951201;28;21752;-59
2022/01/14 07:24:10;;;;;;;39.40;15.45;;;;;;;5.31;76.60;103725.28;4957332;28;20494;-59
2022/01/14 07:26:35;;;;;;;32.25;15.02;;;;;;;5.40;76.72;103730.31;4954847;28;20490;-59
2022/01/14 07:29:01;;;;;;;32.60;15.48;;;;;;;5.49;76.92;103718.13;4943585;28;20086;-59
2022/01/14 07:31:26;;;;;;;32.25;16.23;;;;;;;5.55;76.74;103724.66;4948108;28;20084;-60
2022/01/14 07:33:51;;;;;;;39.35;16.05;;;;;;;5.60;77.01;103717.28;4955455;28;20405;-59
2022/01/14 07:36:22;;;;;;;34.13;16.00;;;;;;;5.69;76.54;103731.81;4953806;28;20845;-59
2022/01/14 07:38:47;;;;;;;31.20;15.80;;;;;;;5.76;76.68;103720.28;4958457;28;20071;-59
2022/01/14 07:41:12;;;;;;;30.77;15.73;;;;;;;5.79;76.76;103730.88;4957181;28;20609;-59
2022/01/14 07:43:38;;;;;;;31.17;15.73;;;;;;;5.83;76.66;103725.16;4944717;28;20522;-59
2022/01/14 07:46:04;;;;;;;31.17;15.32;;;;;;;5.91;76.75;103733.56;4956663;28;20054;-58
2022/01/14 07:48:29;;;;;;;32.28;15.18;;;;;;;5.95;76.59;103727.81;4955443;28;20167;-59
2022/01/14 07:50:54;;;;;;;33.08;15.35;;;;;;;5.99;76.48;103732.44;4980534;28;20038;-61
2022/01/14 07:53:20;;;;;;;31.77;15.65;;;;;;;6.02;76.67;103725.81;4952132;28;20391;-59
2022/01/14 07:55:46;;;;;;;31.50;15.50;;;;;;;6.10;76.52;103726.41;4944152;28;20141;-60
2022/01/14 07:58:11;;;;;;;32.25;15.70;;;;;;;6.15;76.82;103726.78;4958841;28;20112;-59
2022/01/14 08:00:37;;;;;;;30.20;15.50;;;;;;;6.20;76.73;103731.50;4960821;28;20050;-59
2022/01/14 08:03:03;;;;;;;31.35;15.90;;;;;;;6.26;76.94;103737.16;4958157;28;20579;-59
2022/01/14 08:05:29;;;;;;;32.67;15.40;;;;;;;6.31;76.53;103729.72;4956548;28;20462;-60
2022/01/14 08:07:58;;;;;;;32.25;15.93;;;;;;;6.32;76.60;103740.22;4962638;28;20054;-60
2022/01/14 08:10:23;;;;;;;30.48;15.57;;;;;;;6.36;76.38;103730.97;4959049;28;20045;-60
2022/01/14 08:12:49;;;;;;;29.98;16.02;;;;;;;6.42;76.53;103726.25;4960899;28;20445;-59
2022/01/14 08:15:14;;;;;;;33.80;16.15;;;;;;;6.48;76.46;103729.31;4956433;28;20080;-59
2022/01/14 08:17:40;;;;;;;32.13;16.02;;;;;;;6.50;76.52;103726.06;4952065;28;20422;-59
2022/01/14 08:20:06;;;;;;;31.90;15.55;;;;;;;6.53;76.66;103724.50;4963632;28;20844;-60
2022/01/14 08:22:32;;;;;;;30.25;15.10;;;;;;;6.56;76.20;103723.03;4957504;28;20398;-59
2022/01/14 08:24:58;;;;;;;31.10;16.17;;;;;;;6.60;76.68;103737.09;4953749;28;20120;-59
2022/01/14 08:27:26;;;;;;;33.67;16.35;;;;;;;6.63;76.50;103743.44;4953361;28;20038;-59
2022/01/14 08:29:52;;;;;;;31.27;16.27;;;;;;;6.70;76.47;103742.22;4959535;28;20076;-59
2022/01/14 08:32:17;;;;;;;32.17;16.42;;;;;;;6.75;76.30;103738.25;4948582;28;20136;-60
2022/01/14 08:34:43;;;;;;;35.22;17.48;;;;;;;6.79;76.52;103748.06;4957930;28;20042;-59
2022/01/14 08:37:08;;;;;;;28.77;16.33;;;;;;;6.84;76.83;103749.31;4966318;28;20125;-60
2022/01/14 08:39:33;;;;;;;34.95;16.98;;;;;;;6.87;76.41;103750.44;4948228;28;20034;-59
2022/01/14 08:41:59;;;;;;;32.08;16.77;;;;;;;6.92;76.53;103741.31;4957761;28;20061;-59
2022/01/14 08:44:25;;;;;;;31.38;17.00;;;;;;;7.03;76.43;103742.09;4951114;28;20057;-60
2022/01/14 08:46:52;;;;;;;37.13;17.90;;;;;;;7.08;76.33;103752.78;4956894;28;20212;-59
2022/01/14 08:49:19;;;;;;;32.38;17.25;;;;;;;7.11;76.09;103746.16;4956435;28;20042;-61
2022/01/14 08:51:45;;;;;;;38.17;18.77;;;;;;;7.14;76.06;103738.59;4953215;28;20061;-59
2022/01/14 08:54:10;;;;;;;39.65;19.27;;;;;;;7.21;76.38;103738.25;4956843;28;20396;-60
2022/01/14 08:56:36;;;;;;;37.85;19.42;;;;;;;7.30;76.32;103738.03;4954592;28;20074;-61
2022/01/14 08:59:02;;;;;;;36.30;18.35;;;;;;;7.36;76.04;103725.47;4960707;28;20050;-59
2022/01/14 09:01:28;;;;;;;35.53;18.02;;;;;;;7.42;76.32;103732.81;4948302;28;20046;-60
2022/01/14 09:03:53;;;;;;;35.08;17.80;;;;;;;7.47;76.08;103729.75;4972538;28;20509;-60
2022/01/14 09:06:19;;;;;;;35.97;17.38;;;;;;;7.55;76.29;103733.78;4959368;28;20049;-60
2022/01/14 09:08:44;;;;;;;33.20;17.58;;;;;;;7.56;76.04;103727.78;4959814;28;20154;-60
2022/01/14 09:11:09;;;;;;;36.00;18.17;;;;;;;7.65;76.35;103733.63;4954950;28;20346;-59
2022/01/14 09:13:35;;;;;;;32.50;18.33;;;;;;;7.68;75.95;103733.84;4948409;28;20057;-60
2022/01/14 09:16:00;;;;;;;33.53;18.40;;;;;;;7.69;75.81;103737.34;4957026;28;21704;-59
2022/01/14 09:18:26;;;;;;;41.35;19.13;;;;;;;7.78;76.01;103739.69;4950694;28;20604;-60
2022/01/14 09:20:51;;;;;;;37.42;20.58;;;;;;;7.80;76.05;103744.22;4959392;28;20112;-60
2022/01/14 09:23:24;;;;;;;36.05;19.77;;;;;;;7.85;76.18;103728.94;4948308;28;20049;-59
2022/01/14 09:25:52;;;;;;;37.70;19.95;;;;;;;7.92;76.10;103728.59;4954107;28;20417;-59
2022/01/14 09:28:18;;;;;;;39.63;20.10;;;;;;;7.93;75.78;103733.00;4959457;28;20078;-59
2022/01/14 09:30:44;;;;;;;42.42;22.88;;;;;;;8.06;75.84;103744.31;4955978;28;20049;-62
2022/01/14 09:33:09;;;;;;;43.53;21.70;;;;;;;8.11;75.69;103737.72;4956293;28;20121;-60
2022/01/14 09:35:37;;;;;;;39.38;21.90;;;;;;;8.19;75.88;103730.47;4952634;28;20055;-59
2022/01/14 09:38:03;;;;;;;50.65;26.63;;;;;;;8.24;75.89;103735.97;4949954;28;20492;-59
2022/01/14 09:40:28;;;;;;;49.08;24.80;;;;;;;8.35;75.93;103735.97;4959133;28;20491;-60
2022/01/14 09:43:00;;;;;;;53.28;28.20;;;;;;;8.49;76.16;103735.19;4958750;28;20461;-59
2022/01/14 09:45:25;;;;;;;53.50;27.52;;;;;;;8.49;75.64;103729.97;4945978;28;20377;-61
2022/01/14 09:47:51;;;;;;;54.63;27.33;;;;;;;8.65;75.83;103724.13;4959604;28;20034;-60
2022/01/14 09:50:18;;;;;;;56.10;27.48;;;;;;;8.67;75.93;103729.41;4951943;28;20055;-59
2022/01/14 09:52:45;;;;;;;43.70;25.17;;;;;;;8.78;76.12;103728.44;4957435;28;20101;-62
2022/01/14 09:55:11;;;;;;;49.22;26.65;;;;;;;8.80;75.78;103740.72;4947881;28;20245;-60
2022/01/14 09:57:36;;;;;;;47.92;27.05;;;;;;;8.87;75.67;103731.63;4952698;28;20944;-59
2022/01/14 10:00:06;;;;;;;48.67;26.15;;;;;;;8.93;75.64;103740.75;4958761;28;20586;-60
2022/01/14 10:02:34;;;;;;;40.75;23.80;;;;;;;8.92;75.33;103736.31;4949902;28;20418;-59
2022/01/14 10:05:00;;;;;;;47.65;24.67;;;;;;;8.97;75.50;103734.00;4955898;28;20042;-59
2022/01/14 10:07:25;;;;;;;39.35;23.45;;;;;;;9.06;75.46;103742.44;4947945;28;20107;-61
2022/01/14 10:09:57;;;;;;;40.97;23.83;;;;;;;9.08;74.86;103739.94;4958112;28;20057;-60
2022/01/14 10:12:23;;;;;;;44.70;23.88;;;;;;;9.11;74.72;103742.72;4956176;28;20042;-59
2022/01/14 10:15:00;;;;;;;42.22;23.88;;;;;;;9.12;74.80;103736.72;4958339;28;20078;-59
2022/01/14 10:17:38;;;;;;;40.78;23.90;;;;;;;9.19;74.70;103729.44;4947621;28;20588;-60
2022/01/14 10:20:05;;;;;;;40.00;23.98;;;;;;;9.26;74.41;103734.22;4952756;28;20447;-59
2022/01/14 10:22:32;;;;;;;42.22;24.58;;;;;;;9.32;74.03;103741.53;4955275;28;20137;-58
2022/01/14 10:25:07;;;;;;;45.13;24.38;;;;;;;9.36;73.88;103738.31;4958730;28;20046;-59
2022/01/14 10:27:32;;;;;;;40.42;23.05;;;;;;;9.47;73.48;103742.47;4945838;28;20042;-60
2022/01/14 10:30:14;;;;;;;36.95;22.55;;;;;;;9.49;73.09;103733.06;4949502;28;20136;-60
2022/01/14 10:32:41;;;;;;;40.95;22.50;;;;;;;9.55;73.10;103737.78;4962827;28;20161;-60
2022/01/14 10:35:15;;;;;;;38.00;21.23;;;;;;;9.57;72.31;103739.69;4944812;28;20437;-60
2022/01/14 10:37:40;;;;;;;41.22;21.45;;;;;;;9.71;72.26;103737.91;4947617;28;20758;-60
2022/01/14 10:40:13;;;;;;;36.42;20.42;;;;;;;9.77;72.33;103738.28;4949048;28;20392;-60
2022/01/14 10:42:40;;;;;;;36.72;19.30;;;;;;;9.83;72.02;103741.28;4961914;28;20038;-61
2022/01/14 10:45:21;;;;;;;34.63;19.50;;;;;;;9.89;71.31;103731.22;4942526;28;20097;-59
2022/01/14 10:48:09;;;;;;;33.22;20.02;;;;;;;9.93;70.77;103740.16;4959218;28;20165;-61
2022/01/14 10:50:42;;;;;;;32.92;20.27;;;;;;;9.99;70.19;103743.16;4965143;28;20042;-60
2022/01/14 10:53:14;;;;;;;32.63;20.15;;;;;;;10.07;70.46;103736.66;4961061;28;20477;-59
2022/01/14 10:56:06;;;;;;;30.83;19.40;;;;;;;10.08;70.01;103733.25;4956893;28;20973;-59
2022/01/14 10:58:40;;;;;;;33.45;19.83;;;;;;;10.14;70.12;103733.63;4940808;28;21298;-59
2022/01/14 11:01:14;;;;;;;37.03;20.02;;;;;;;10.23;69.52;103729.03;4958362;28;20073;-59
2022/01/14 11:03:43;;;;;;;38.70;20.25;;;;;;;10.23;70.03;103726.41;4945509;28;20484;-59
2022/01/14 11:06:19;;;;;;;36.58;20.27;;;;;;;10.26;69.72;103728.28;4957626;28;20411;-60
2022/01/14 11:08:45;;;;;;;33.40;18.48;;;;;;;10.33;69.38;103720.94;4954491;28;20054;-60
2022/01/14 11:11:11;;;;;;;31.13;15.70;;;;;;;10.30;68.60;103723.38;4942036;28;20317;-59
2022/01/14 11:13:37;;;;;;;30.38;16.85;;;;;;;10.32;68.29;103720.84;4948763;28;20058;-58
2022/01/14 11:16:03;;;;;;;34.78;18.25;;;;;;;10.22;68.81;103710.66;4955608;28;20171;-59
2022/01/14 11:18:28;;;;;;;30.02;16.80;;;;;;;10.33;69.11;103720.94;4960986;28;20050;-59
2022/01/14 11:23:37;;;;;;;30.00;14.40;;;;;;;10.24;68.12;103722.09;4946384;28;20677;-59
2022/01/14 11:26:06;;;;;;;30.73;15.95;;;;;;;10.16;66.44;103725.16;4955308;28;20046;-59
2022/01/14 11:28:33;;;;;;;34.08;17.27;;;;;;;10.20;66.87;103723.59;4952718;28;20047;-59
2022/01/14 11:30:59;;;;;;;32.35;18.13;;;;;;;10.23;67.51;103723.81;4952603;28;20062;-59
2022/01/14 11:33:43;;;;;;;30.67;16.25;;;;;;;10.21;67.82;103720.19;4955186;28;20828;-59
2022/01/14 11:36:09;;;;;;;29.40;15.95;;;;;;;10.10;68.11;103724.75;4959572;28;20039;-58